sensor_id;sensor_type;location;lat;lon;timestamp;P1;durP1;ratioP1;P2;durP2;ratioP2
68275;SDS011;55106;51.438;-0.098;2022-11-20T00:01:10;26.17;;;12.73;;
68275;SDS011;55106;51.438;-0.098;2022-11-20T00:03:40;26.05;;;11.85;;
68275;SDS011;55106;51.438;-0.098;2022-11-20T00:06:07;22.80;;;11.17;;
68275;SDS011;55106;51.438;-0.098;2022-11-20T00:08:35;23.25;;;11.13;;
68275;SDS011;55106;51.438;-0.098;2022-11-20T00:11:05;25.73;;;10.52;;
68275;SDS011;55106;51.438;-0.098;2022-11-20T00:13:32;21.05;;;9.25;;
68275;SDS011;55106;51.438;-0.098;2022-11-20T00:15:59;17.90;;;8.20;;
68275;SDS011;55106;51.438;-0.098;2022-11-20T00:18:25;19.02;;;7.85;;
68275;SDS011;55106;51.438;-0.098;2022-11-20T00:20:51;17.88;;;7.07;;
68275;SDS011;55106;51.438;-0.098;2022-11-20T00:23:16;19.30;;;7.57;;
68275;SDS011;55106;51.438;-0.098;2022-11-20T00:25:42;21.83;;;7.40;;
68275;SDS011;55106;51.438;-0.098;2022-11-20T00:28:07;16.73;;;7.05;;
68275;SDS011;55106;51.438;-0.098;2022-11-20T00:30:32;17.87;;;6.27;;
68275;SDS011;55106;51.438;-0.098;2022-11-20T00:32:58;12.87;;;6.13;;
68275;SDS011;55106;51.438;-0.098;2022-11-20T00:35:23;16.40;;;6.00;;
68275;SDS011;55106;51.438;-0.098;2022-11-20T00:37:49;11.97;;;6.37;;
68275;SDS011;55106;51.438;-0.098;2022-11-20T00:40:14;16.77;;;5.43;;
68275;SDS011;55106;51.438;-0.098;2022-11-20T00:42:39;13.80;;;5.40;;
68275;SDS011;55106;51.438;-0.098;2022-11-20T00:45:05;13.83;;;6.27;;
68275;SDS011;55106;51.438;-0.098;2022-11-20T00:47:30;13.17;;;6.00;;
68275;SDS011;55106;51.438;-0.098;2022-11-20T00:49:56;14.83;;;5.80;;
68275;SDS011;55106;51.438;-0.098;2022-11-20T00:52:21;13.60;;;5.80;;
68275;SDS011;55106;51.438;-0.098;2022-11-20T00:54:46;10.77;;;5.43;;
68275;SDS011;55106;51.438;-0.098;2022-11-20T00:57:12;15.37;;;4.97;;
68275;SDS011;55106;51.438;-0.098;2022-11-20T00:59:37;17.60;;;5.07;;
68275;SDS011;55106;51.438;-0.098;2022-11-20T01:02:03;14.13;;;4.80;;
68275;SDS011;55106;51.438;-0.098;2022-11-20T01:04:28;13.57;;;4.70;;
68275;SDS011;55106;51.438;-0.098;2022-11-20T01:06:53;13.80;;;5.50;;
68275;SDS011;55106;51.438;-0.098;2022-11-20T01:09:19;14.00;;;4.80;;
68275;SDS011;55106;51.438;-0.098;2022-11-20T01:11:44;11.77;;;4.20;;
68275;SDS011;55106;51.438;-0.098;2022-11-20T01:14:11;17.13;;;5.50;;
68275;SDS011;55106;51.438;-0.098;2022-11-20T01:16:45;10.27;;;4.47;;
68275;SDS011;55106;51.438;-0.098;2022-11-20T01:19:14;12.88;;;4.38;;
68275;SDS011;55106;51.438;-0.098;2022-11-20T01:21:41;14.68;;;4.25;;
68275;SDS011;55106;51.438;-0.098;2022-11-20T01:24:10;8.75;;;3.88;;
68275;SDS011;55106;51.438;-0.098;2022-11-20T01:26:37;12.50;;;4.27;;
68275;SDS011;55106;51.438;-0.098;2022-11-20T01:29:05;12.88;;;4.30;;
68275;SDS011;55106;51.438;-0.098;2022-11-20T01:31:32;11.77;;;4.28;;
68275;SDS011;55106;51.438;-0.098;2022-11-20T01:34:05;9.55;;;4.05;;
68275;SDS011;55106;51.438;-0.098;2022-11-20T01:36:32;8.68;;;3.35;;
68275;SDS011;55106;51.438;-0.098;2022-11-20T01:38:59;11.37;;;3.30;;
68275;SDS011;55106;51.438;-0.098;2022-11-20T01:41:27;10.65;;;3.20;;
68275;SDS011;55106;51.438;-0.098;2022-11-20T01:44:13;8.70;;;2.85;;
68275;SDS011;55106;51.438;-0.098;2022-11-20T01:46:40;10.98;;;2.90;;
68275;SDS011;55106;51.438;-0.098;2022-11-20T01:49:19;11.65;;;3.15;;
68275;SDS011;55106;51.438;-0.098;2022-11-20T01:51:49;11.17;;;3.27;;
68275;SDS011;55106;51.438;-0.098;2022-11-20T01:54:17;8.68;;;2.97;;
68275;SDS011;55106;51.438;-0.098;2022-11-20T01:56:47;13.02;;;2.90;;
68275;SDS011;55106;51.438;-0.098;2022-11-20T01:59:15;7.38;;;2.70;;
68275;SDS011;55106;51.438;-0.098;2022-11-20T02:01:43;13.57;;;3.10;;
68275;SDS011;55106;51.438;-0.098;2022-11-20T02:04:09;7.73;;;2.70;;
68275;SDS011;55106;51.438;-0.098;2022-11-20T02:06:36;7.78;;;2.63;;
68275;SDS011;55106;51.438;-0.098;2022-11-20T02:09:07;8.80;;;2.53;;
68275;SDS011;55106;51.438;-0.098;2022-11-20T02:11:32;8.95;;;2.47;;
68275;SDS011;55106;51.438;-0.098;2022-11-20T02:13:58;7.00;;;2.27;;
68275;SDS011;55106;51.438;-0.098;2022-11-20T02:16:25;6.28;;;2.45;;
68275;SDS011;55106;51.438;-0.098;2022-11-20T02:18:57;10.07;;;2.20;;
68275;SDS011;55106;51.438;-0.098;2022-11-20T02:24:00;7.07;;;2.20;;
68275;SDS011;55106;51.438;-0.098;2022-11-20T02:26:31;8.93;;;2.35;;
68275;SDS011;55106;51.438;-0.098;2022-11-20T02:29:04;7.07;;;2.63;;
68275;SDS011;55106;51.438;-0.098;2022-11-20T02:31:33;9.10;;;2.50;;
68275;SDS011;55106;51.438;-0.098;2022-11-20T02:34:04;8.82;;;2.53;;
68275;SDS011;55106;51.438;-0.098;2022-11-20T02:36:30;8.03;;;2.43;;
68275;SDS011;55106;51.438;-0.098;2022-11-20T02:38:57;11.57;;;2.50;;
68275;SDS011;55106;51.438;-0.098;2022-11-20T02:41:30;7.73;;;2.50;;
68275;SDS011;55106;51.438;-0.098;2022-11-20T02:43:59;8.55;;;2.65;;
68275;SDS011;55106;51.438;-0.098;2022-11-20T02:46:25;6.50;;;2.43;;
68275;SDS011;55106;51.438;-0.098;2022-11-20T02:48:50;7.47;;;2.53;;
68275;SDS011;55106;51.438;-0.098;2022-11-20T02:51:15;8.47;;;2.10;;
68275;SDS011;55106;51.438;-0.098;2022-11-20T02:53:41;11.83;;;2.67;;
68275;SDS011;55106;51.438;-0.098;2022-11-20T02:56:06;5.80;;;2.03;;
68275;SDS011;55106;51.438;-0.098;2022-11-20T02:58:32;8.63;;;2.23;;
68275;SDS011;55106;51.438;-0.098;2022-11-20T03:00:57;6.77;;;2.10;;
68275;SDS011;55106;51.438;-0.098;2022-11-20T03:03:23;6.20;;;2.10;;
68275;SDS011;55106;51.438;-0.098;2022-11-20T03:05:48;6.67;;;2.07;;
68275;SDS011;55106;51.438;-0.098;2022-11-20T03:08:13;10.60;;;2.10;;
68275;SDS011;55106;51.438;-0.098;2022-11-20T03:10:39;8.87;;;2.33;;
68275;SDS011;55106;51.438;-0.098;2022-11-20T03:13:04;7.33;;;2.30;;
68275;SDS011;55106;51.438;-0.098;2022-11-20T03:15:30;6.60;;;2.00;;
68275;SDS011;55106;51.438;-0.098;2022-11-20T03:17:55;5.27;;;2.17;;
68275;SDS011;55106;51.438;-0.098;2022-11-20T03:20:21;7.23;;;1.73;;
68275;SDS011;55106;51.438;-0.098;2022-11-20T03:22:47;5.82;;;2.00;;
68275;SDS011;55106;51.438;-0.098;2022-11-20T03:25:12;8.63;;;1.97;;
68275;SDS011;55106;51.438;-0.098;2022-11-20T03:27:37;6.90;;;2.03;;
68275;SDS011;55106;51.438;-0.098;2022-11-20T03:30:03;7.57;;;2.17;;
68275;SDS011;55106;51.438;-0.098;2022-11-20T03:32:29;7.03;;;1.98;;
68275;SDS011;55106;51.438;-0.098;2022-11-20T03:34:54;9.53;;;1.73;;
68275;SDS011;55106;51.438;-0.098;2022-11-20T03:37:19;8.10;;;2.17;;
68275;SDS011;55106;51.438;-0.098;2022-11-20T03:39:45;6.97;;;2.53;;
68275;SDS011;55106;51.438;-0.098;2022-11-20T03:42:10;4.80;;;1.70;;
68275;SDS011;55106;51.438;-0.098;2022-11-20T03:44:55;9.23;;;2.20;;
68275;SDS011;55106;51.438;-0.098;2022-11-20T03:47:21;6.63;;;1.60;;
68275;SDS011;55106;51.438;-0.098;2022-11-20T03:49:46;8.37;;;2.13;;
68275;SDS011;55106;51.438;-0.098;2022-11-20T03:52:12;6.03;;;1.67;;
68275;SDS011;55106;51.438;-0.098;2022-11-20T03:54:37;6.70;;;2.00;;
68275;SDS011;55106;51.438;-0.098;2022-11-20T03:57:02;7.00;;;1.90;;
68275;SDS011;55106;51.438;-0.098;2022-11-20T03:59:28;8.88;;;2.00;;
68275;SDS011;55106;51.438;-0.098;2022-11-20T04:01:53;8.07;;;1.83;;
68275;SDS011;55106;51.438;-0.098;2022-11-20T04:04:18;7.93;;;2.03;;
68275;SDS011;55106;51.438;-0.098;2022-11-20T04:06:44;6.63;;;2.07;;
68275;SDS011;55106;51.438;-0.098;2022-11-20T04:09:09;6.80;;;2.07;;
68275;SDS011;55106;51.438;-0.098;2022-11-20T04:11:35;7.47;;;1.90;;
68275;SDS011;55106;51.438;-0.098;2022-11-20T04:14:04;7.22;;;2.15;;
68275;SDS011;55106;51.438;-0.098;2022-11-20T04:16:32;7.65;;;2.35;;
68275;SDS011;55106;51.438;-0.098;2022-11-20T04:18:59;8.30;;;2.30;;
68275;SDS011;55106;51.438;-0.098;2022-11-20T04:21:26;6.03;;;2.45;;
68275;SDS011;55106;51.438;-0.098;2022-11-20T04:23:52;7.70;;;2.20;;
68275;SDS011;55106;51.438;-0.098;2022-11-20T04:26:19;6.35;;;2.40;;
68275;SDS011;55106;51.438;-0.098;2022-11-20T04:28:44;6.20;;;2.40;;
68275;SDS011;55106;51.438;-0.098;2022-11-20T04:31:11;7.27;;;2.27;;
68275;SDS011;55106;51.438;-0.098;2022-11-20T04:33:38;8.13;;;2.30;;
68275;SDS011;55106;51.438;-0.098;2022-11-20T04:36:06;9.85;;;2.40;;
68275;SDS011;55106;51.438;-0.098;2022-11-20T04:38:33;7.32;;;2.60;;
68275;SDS011;55106;51.438;-0.098;2022-11-20T04:41:03;8.07;;;2.27;;
68275;SDS011;55106;51.438;-0.098;2022-11-20T04:43:30;9.52;;;2.35;;
68275;SDS011;55106;51.438;-0.098;2022-11-20T04:45:57;8.35;;;2.30;;
68275;SDS011;55106;51.438;-0.098;2022-11-20T04:48:23;6.97;;;2.40;;
68275;SDS011;55106;51.438;-0.098;2022-11-20T04:50:49;7.70;;;2.43;;
68275;SDS011;55106;51.438;-0.098;2022-11-20T04:53:15;9.32;;;2.40;;
68275;SDS011;55106;51.438;-0.098;2022-11-20T04:55:41;9.48;;;2.70;;
68275;SDS011;55106;51.438;-0.098;2022-11-20T04:58:06;7.27;;;2.33;;
68275;SDS011;55106;51.438;-0.098;2022-11-20T05:00:32;6.80;;;2.50;;
68275;SDS011;55106;51.438;-0.098;2022-11-20T05:02:57;7.13;;;2.10;;
68275;SDS011;55106;51.438;-0.098;2022-11-20T05:05:23;6.53;;;2.43;;
68275;SDS011;55106;51.438;-0.098;2022-11-20T05:07:48;10.53;;;2.87;;
68275;SDS011;55106;51.438;-0.098;2022-11-20T05:10:13;6.93;;;2.43;;
68275;SDS011;55106;51.438;-0.098;2022-11-20T05:12:39;6.57;;;2.70;;
68275;SDS011;55106;51.438;-0.098;2022-11-20T05:15:05;8.83;;;2.70;;
68275;SDS011;55106;51.438;-0.098;2022-11-20T05:17:30;5.83;;;2.50;;
68275;SDS011;55106;51.438;-0.098;2022-11-20T05:19:56;6.57;;;2.80;;
68275;SDS011;55106;51.438;-0.098;2022-11-20T05:22:21;7.28;;;2.33;;
68275;SDS011;55106;51.438;-0.098;2022-11-20T05:24:46;7.90;;;2.63;;
68275;SDS011;55106;51.438;-0.098;2022-11-20T05:27:12;11.10;;;3.20;;
68275;SDS011;55106;51.438;-0.098;2022-11-20T05:29:37;8.50;;;2.50;;
68275;SDS011;55106;51.438;-0.098;2022-11-20T05:32:03;9.07;;;2.80;;
68275;SDS011;55106;51.438;-0.098;2022-11-20T05:34:28;6.38;;;2.40;;
68275;SDS011;55106;51.438;-0.098;2022-11-20T05:36:53;8.27;;;3.17;;
68275;SDS011;55106;51.438;-0.098;2022-11-20T05:39:19;7.47;;;2.20;;
68275;SDS011;55106;51.438;-0.098;2022-11-20T05:41:44;8.37;;;3.00;;
68275;SDS011;55106;51.438;-0.098;2022-11-20T05:44:10;7.60;;;2.53;;
68275;SDS011;55106;51.438;-0.098;2022-11-20T05:46:36;13.10;;;2.97;;
68275;SDS011;55106;51.438;-0.098;2022-11-20T05:49:01;8.77;;;2.67;;
68275;SDS011;55106;51.438;-0.098;2022-11-20T05:51:27;10.32;;;2.65;;
68275;SDS011;55106;51.438;-0.098;2022-11-20T05:53:52;10.70;;;2.73;;
68275;SDS011;55106;51.438;-0.098;2022-11-20T05:56:18;11.03;;;3.10;;
68275;SDS011;55106;51.438;-0.098;2022-11-20T05:58:46;10.68;;;3.13;;
68275;SDS011;55106;51.438;-0.098;2022-11-20T06:03:45;8.53;;;2.90;;
68275;SDS011;55106;51.438;-0.098;2022-11-20T06:06:12;8.60;;;2.95;;
68275;SDS011;55106;51.438;-0.098;2022-11-20T06:08:39;9.35;;;2.92;;
68275;SDS011;55106;51.438;-0.098;2022-11-20T06:11:09;9.15;;;3.50;;
68275;SDS011;55106;51.438;-0.098;2022-11-20T06:13:36;9.63;;;3.25;;
68275;SDS011;55106;51.438;-0.098;2022-11-20T06:16:01;10.37;;;3.37;;
68275;SDS011;55106;51.438;-0.098;2022-11-20T06:18:27;8.68;;;3.00;;
68275;SDS011;55106;51.438;-0.098;2022-11-20T06:21:27;10.67;;;2.97;;
68275;SDS011;55106;51.438;-0.098;2022-11-20T06:23:46;9.15;;;2.85;;
68275;SDS011;55106;51.438;-0.098;2022-11-20T06:26:13;8.20;;;2.65;;
68275;SDS011;55106;51.438;-0.098;2022-11-20T06:28:40;10.70;;;2.70;;
68275;SDS011;55106;51.438;-0.098;2022-11-20T06:31:06;7.60;;;2.90;;
68275;SDS011;55106;51.438;-0.098;2022-11-20T06:33:32;7.40;;;2.67;;
68275;SDS011;55106;51.438;-0.098;2022-11-20T06:35:58;9.55;;;2.95;;
68275;SDS011;55106;51.438;-0.098;2022-11-20T06:38:25;8.90;;;4.15;;
68275;SDS011;55106;51.438;-0.098;2022-11-20T06:40:51;9.20;;;2.90;;
68275;SDS011;55106;51.438;-0.098;2022-11-20T06:43:17;10.50;;;2.70;;
68275;SDS011;55106;51.438;-0.098;2022-11-20T06:45:42;9.03;;;3.00;;
68275;SDS011;55106;51.438;-0.098;2022-11-20T06:48:07;9.90;;;3.43;;
68275;SDS011;55106;51.438;-0.098;2022-11-20T06:50:33;8.48;;;3.75;;
68275;SDS011;55106;51.438;-0.098;2022-11-20T06:53:00;8.13;;;2.90;;
68275;SDS011;55106;51.438;-0.098;2022-11-20T06:55:27;7.95;;;2.80;;
68275;SDS011;55106;51.438;-0.098;2022-11-20T06:57:52;9.67;;;3.07;;
68275;SDS011;55106;51.438;-0.098;2022-11-20T07:00:18;8.80;;;3.00;;
68275;SDS011;55106;51.438;-0.098;2022-11-20T07:02:43;9.70;;;2.80;;
68275;SDS011;55106;51.438;-0.098;2022-11-20T07:05:08;9.80;;;2.77;;
68275;SDS011;55106;51.438;-0.098;2022-11-20T07:07:34;7.47;;;2.90;;
68275;SDS011;55106;51.438;-0.098;2022-11-20T07:09:59;7.13;;;2.60;;
68275;SDS011;55106;51.438;-0.098;2022-11-20T07:12:24;6.63;;;2.77;;
68275;SDS011;55106;51.438;-0.098;2022-11-20T07:14:50;8.23;;;2.83;;
68275;SDS011;55106;51.438;-0.098;2022-11-20T07:17:15;6.00;;;2.20;;
68275;SDS011;55106;51.438;-0.098;2022-11-20T07:19:40;7.63;;;2.50;;
68275;SDS011;55106;51.438;-0.098;2022-11-20T07:22:07;5.93;;;2.60;;
68275;SDS011;55106;51.438;-0.098;2022-11-20T07:24:33;8.77;;;2.70;;
68275;SDS011;55106;51.438;-0.098;2022-11-20T07:26:58;8.57;;;3.80;;
68275;SDS011;55106;51.438;-0.098;2022-11-20T07:29:24;10.77;;;4.05;;
68275;SDS011;55106;51.438;-0.098;2022-11-20T07:31:49;9.80;;;3.93;;
68275;SDS011;55106;51.438;-0.098;2022-11-20T07:34:14;7.67;;;3.33;;
68275;SDS011;55106;51.438;-0.098;2022-11-20T07:36:40;8.87;;;3.40;;
68275;SDS011;55106;51.438;-0.098;2022-11-20T07:39:05;7.03;;;3.03;;
68275;SDS011;55106;51.438;-0.098;2022-11-20T07:41:30;7.30;;;2.90;;
68275;SDS011;55106;51.438;-0.098;2022-11-20T07:43:56;6.90;;;3.25;;
68275;SDS011;55106;51.438;-0.098;2022-11-20T07:46:21;6.73;;;2.90;;
68275;SDS011;55106;51.438;-0.098;2022-11-20T07:48:47;7.63;;;2.77;;
68275;SDS011;55106;51.438;-0.098;2022-11-20T07:51:12;6.87;;;2.97;;
68275;SDS011;55106;51.438;-0.098;2022-11-20T07:53:38;6.45;;;2.72;;
68275;SDS011;55106;51.438;-0.098;2022-11-20T07:56:04;6.57;;;2.40;;
68275;SDS011;55106;51.438;-0.098;2022-11-20T07:58:30;6.57;;;2.08;;
68275;SDS011;55106;51.438;-0.098;2022-11-20T08:00:57;4.72;;;1.50;;
68275;SDS011;55106;51.438;-0.098;2022-11-20T08:03:26;4.32;;;1.50;;
68275;SDS011;55106;51.438;-0.098;2022-11-20T08:05:52;4.90;;;1.80;;
68275;SDS011;55106;51.438;-0.098;2022-11-20T08:08:17;5.13;;;1.90;;
68275;SDS011;55106;51.438;-0.098;2022-11-20T08:10:42;4.20;;;1.60;;
68275;SDS011;55106;51.438;-0.098;2022-11-20T08:13:08;4.90;;;1.63;;
68275;SDS011;55106;51.438;-0.098;2022-11-20T08:15:52;6.35;;;1.60;;
68275;SDS011;55106;51.438;-0.098;2022-11-20T08:18:17;6.73;;;1.93;;
68275;SDS011;55106;51.438;-0.098;2022-11-20T08:20:43;6.60;;;2.30;;
68275;SDS011;55106;51.438;-0.098;2022-11-20T08:23:09;6.60;;;2.40;;
68275;SDS011;55106;51.438;-0.098;2022-11-20T08:25:35;5.70;;;2.60;;
68275;SDS011;55106;51.438;-0.098;2022-11-20T08:28:02;7.68;;;2.60;;
68275;SDS011;55106;51.438;-0.098;2022-11-20T08:30:29;7.53;;;2.92;;
68275;SDS011;55106;51.438;-0.098;2022-11-20T08:32:59;6.38;;;2.88;;
68275;SDS011;55106;51.438;-0.098;2022-11-20T08:35:32;7.82;;;3.38;;
68275;SDS011;55106;51.438;-0.098;2022-11-20T08:37:58;10.57;;;3.53;;
68275;SDS011;55106;51.438;-0.098;2022-11-20T08:40:23;8.68;;;3.72;;
68275;SDS011;55106;51.438;-0.098;2022-11-20T08:42:50;7.40;;;3.57;;
68275;SDS011;55106;51.438;-0.098;2022-11-20T08:45:16;8.40;;;3.78;;
68275;SDS011;55106;51.438;-0.098;2022-11-20T08:47:43;9.23;;;3.27;;
68275;SDS011;55106;51.438;-0.098;2022-11-20T08:50:09;8.52;;;4.03;;
68275;SDS011;55106;51.438;-0.098;2022-11-20T08:52:35;7.15;;;3.78;;
68275;SDS011;55106;51.438;-0.098;2022-11-20T08:55:01;8.50;;;3.57;;
68275;SDS011;55106;51.438;-0.098;2022-11-20T08:57:26;8.00;;;3.77;;
68275;SDS011;55106;51.438;-0.098;2022-11-20T08:59:51;12.53;;;4.73;;
68275;SDS011;55106;51.438;-0.098;2022-11-20T09:02:17;7.47;;;4.10;;
68275;SDS011;55106;51.438;-0.098;2022-11-20T09:04:42;8.87;;;4.00;;
68275;SDS011;55106;51.438;-0.098;2022-11-20T09:07:07;7.90;;;4.17;;
68275;SDS011;55106;51.438;-0.098;2022-11-20T09:09:33;7.73;;;4.17;;
68275;SDS011;55106;51.438;-0.098;2022-11-20T09:11:58;8.57;;;4.13;;
68275;SDS011;55106;51.438;-0.098;2022-11-20T09:14:24;9.40;;;4.45;;
68275;SDS011;55106;51.438;-0.098;2022-11-20T09:16:55;8.10;;;3.83;;
68275;SDS011;55106;51.438;-0.098;2022-11-20T09:19:21;7.05;;;3.53;;
68275;SDS011;55106;51.438;-0.098;2022-11-20T09:21:46;6.63;;;3.10;;
68275;SDS011;55106;51.438;-0.098;2022-11-20T09:24:11;7.97;;;3.37;;
68275;SDS011;55106;51.438;-0.098;2022-11-20T09:26:37;9.77;;;3.75;;
68275;SDS011;55106;51.438;-0.098;2022-11-20T09:29:02;7.40;;;3.30;;
68275;SDS011;55106;51.438;-0.098;2022-11-20T09:31:28;6.47;;;3.00;;
68275;SDS011;55106;51.438;-0.098;2022-11-20T09:33:53;6.27;;;3.10;;
68275;SDS011;55106;51.438;-0.098;2022-11-20T09:36:18;9.07;;;3.60;;
68275;SDS011;55106;51.438;-0.098;2022-11-20T09:38:44;6.60;;;3.70;;
68275;SDS011;55106;51.438;-0.098;2022-11-20T09:52:25;8.68;;;3.42;;
68275;SDS011;55106;51.438;-0.098;2022-11-20T09:55:03;7.85;;;3.70;;
68275;SDS011;55106;51.438;-0.098;2022-11-20T09:57:37;7.97;;;3.50;;
68275;SDS011;55106;51.438;-0.098;2022-11-20T10:00:06;8.43;;;3.47;;
68275;SDS011;55106;51.438;-0.098;2022-11-20T10:05:28;9.18;;;3.80;;
68275;SDS011;55106;51.438;-0.098;2022-11-20T10:10:43;8.38;;;3.63;;
68275;SDS011;55106;51.438;-0.098;2022-11-20T10:20:46;16.60;;;4.05;;
68275;SDS011;55106;51.438;-0.098;2022-11-20T10:23:27;9.07;;;3.70;;
68275;SDS011;55106;51.438;-0.098;2022-11-20T10:29:29;9.82;;;3.50;;
68275;SDS011;55106;51.438;-0.098;2022-11-20T10:32:10;7.47;;;2.80;;
68275;SDS011;55106;51.438;-0.098;2022-11-20T10:37:33;10.55;;;3.20;;
68275;SDS011;55106;51.438;-0.098;2022-11-20T10:42:44;12.90;;;3.45;;
68275;SDS011;55106;51.438;-0.098;2022-11-20T10:47:50;11.63;;;2.85;;
68275;SDS011;55106;51.438;-0.098;2022-11-20T10:50:19;15.10;;;3.63;;
68275;SDS011;55106;51.438;-0.098;2022-11-20T10:55:33;11.32;;;3.45;;
68275;SDS011;55106;51.438;-0.098;2022-11-20T10:58:14;10.80;;;3.00;;
68275;SDS011;55106;51.438;-0.098;2022-11-20T11:00:47;9.10;;;2.75;;
68275;SDS011;55106;51.438;-0.098;2022-11-20T11:03:28;7.78;;;2.70;;
68275;SDS011;55106;51.438;-0.098;2022-11-20T11:06:09;15.03;;;3.10;;
68275;SDS011;55106;51.438;-0.098;2022-11-20T11:08:57;14.40;;;2.80;;
68275;SDS011;55106;51.438;-0.098;2022-11-20T11:11:28;12.68;;;3.20;;
68275;SDS011;55106;51.438;-0.098;2022-11-20T11:14:06;10.00;;;2.80;;
68275;SDS011;55106;51.438;-0.098;2022-11-20T11:16:32;13.75;;;3.20;;
68275;SDS011;55106;51.438;-0.098;2022-11-20T11:19:04;14.93;;;2.93;;
68275;SDS011;55106;51.438;-0.098;2022-11-20T11:21:29;16.75;;;3.20;;
68275;SDS011;55106;51.438;-0.098;2022-11-20T11:24:04;10.97;;;3.33;;
68275;SDS011;55106;51.438;-0.098;2022-11-20T11:26:30;15.75;;;2.45;;
68275;SDS011;55106;51.438;-0.098;2022-11-20T11:31:31;11.13;;;2.47;;
68275;SDS011;55106;51.438;-0.098;2022-11-20T11:34:12;11.70;;;2.78;;
68275;SDS011;55106;51.438;-0.098;2022-11-20T11:36:39;14.13;;;3.13;;
68275;SDS011;55106;51.438;-0.098;2022-11-20T11:39:05;15.30;;;3.10;;
68275;SDS011;55106;51.438;-0.098;2022-11-20T11:41:36;14.95;;;3.15;;
68275;SDS011;55106;51.438;-0.098;2022-11-20T11:44:21;15.00;;;2.83;;
68275;SDS011;55106;51.438;-0.098;2022-11-20T11:47:09;15.32;;;3.40;;
68275;SDS011;55106;51.438;-0.098;2022-11-20T11:55:42;17.67;;;2.80;;
68275;SDS011;55106;51.438;-0.098;2022-11-20T12:00:54;9.95;;;2.42;;
68275;SDS011;55106;51.438;-0.098;2022-11-20T12:03:34;14.55;;;2.65;;
68275;SDS011;55106;51.438;-0.098;2022-11-20T12:06:04;15.18;;;3.40;;
68275;SDS011;55106;51.438;-0.098;2022-11-20T12:14:13;16.10;;;2.70;;
68275;SDS011;55106;51.438;-0.098;2022-11-20T12:16:41;15.15;;;2.78;;
68275;SDS011;55106;51.438;-0.098;2022-11-20T12:19:10;19.63;;;3.43;;
68275;SDS011;55106;51.438;-0.098;2022-11-20T12:21:47;15.93;;;2.60;;
68275;SDS011;55106;51.438;-0.098;2022-11-20T12:29:29;19.40;;;3.20;;
68275;SDS011;55106;51.438;-0.098;2022-11-20T12:35:17;19.40;;;2.88;;
68275;SDS011;55106;51.438;-0.098;2022-11-20T12:41:12;19.43;;;2.97;;
68275;SDS011;55106;51.438;-0.098;2022-11-20T12:47:15;16.67;;;2.92;;
68275;SDS011;55106;51.438;-0.098;2022-11-20T12:50:01;9.35;;;2.42;;
68275;SDS011;55106;51.438;-0.098;2022-11-20T12:58:17;14.13;;;2.72;;
68275;SDS011;55106;51.438;-0.098;2022-11-20T13:00:56;14.77;;;3.15;;
68275;SDS011;55106;51.438;-0.098;2022-11-20T13:03:43;14.80;;;2.75;;
68275;SDS011;55106;51.438;-0.098;2022-11-20T13:06:17;13.05;;;2.83;;
68275;SDS011;55106;51.438;-0.098;2022-11-20T13:08:53;23.63;;;3.07;;
68275;SDS011;55106;51.438;-0.098;2022-11-20T13:16:41;16.67;;;2.40;;
68275;SDS011;55106;51.438;-0.098;2022-11-20T13:19:16;15.60;;;2.78;;
68275;SDS011;55106;51.438;-0.098;2022-11-20T13:21:45;15.47;;;3.13;;
68275;SDS011;55106;51.438;-0.098;2022-11-20T13:29:30;18.88;;;6.95;;
68275;SDS011;55106;51.438;-0.098;2022-11-20T13:32:03;14.80;;;3.03;;
68275;SDS011;55106;51.438;-0.098;2022-11-20T13:34:31;15.53;;;3.00;;
68275;SDS011;55106;51.438;-0.098;2022-11-20T13:36:57;15.13;;;3.90;;
68275;SDS011;55106;51.438;-0.098;2022-11-20T13:39:26;12.80;;;2.93;;
68275;SDS011;55106;51.438;-0.098;2022-11-20T13:41:56;11.90;;;2.65;;
68275;SDS011;55106;51.438;-0.098;2022-11-20T13:44:33;11.00;;;2.40;;
68275;SDS011;55106;51.438;-0.098;2022-11-20T13:47:03;12.63;;;2.53;;
68275;SDS011;55106;51.438;-0.098;2022-11-20T13:49:42;12.13;;;2.55;;
68275;SDS011;55106;51.438;-0.098;2022-11-20T14:00:27;13.88;;;5.00;;
68275;SDS011;55106;51.438;-0.098;2022-11-20T14:03:08;13.70;;;3.57;;
68275;SDS011;55106;51.438;-0.098;2022-11-20T14:05:49;15.40;;;3.85;;
68275;SDS011;55106;51.438;-0.098;2022-11-20T14:08:38;15.57;;;5.22;;
68275;SDS011;55106;51.438;-0.098;2022-11-20T14:11:19;15.97;;;4.00;;
68275;SDS011;55106;51.438;-0.098;2022-11-20T14:16:26;35.47;;;15.93;;
68275;SDS011;55106;51.438;-0.098;2022-11-20T14:18:54;15.25;;;5.97;;
68275;SDS011;55106;51.438;-0.098;2022-11-20T14:21:29;18.25;;;4.80;;
68275;SDS011;55106;51.438;-0.098;2022-11-20T14:24:05;19.67;;;4.87;;
68275;SDS011;55106;51.438;-0.098;2022-11-20T14:26:30;16.40;;;4.55;;
68275;SDS011;55106;51.438;-0.098;2022-11-20T14:28:56;16.17;;;4.20;;
68275;SDS011;55106;51.438;-0.098;2022-11-20T14:31:25;21.47;;;9.43;;
68275;SDS011;55106;51.438;-0.098;2022-11-20T14:33:52;21.50;;;10.50;;
68275;SDS011;55106;51.438;-0.098;2022-11-20T14:36:19;24.33;;;8.80;;
68275;SDS011;55106;51.438;-0.098;2022-11-20T14:38:47;16.83;;;5.78;;
68275;SDS011;55106;51.438;-0.098;2022-11-20T14:41:17;17.83;;;5.17;;
68275;SDS011;55106;51.438;-0.098;2022-11-20T14:43:47;13.68;;;3.72;;
68275;SDS011;55106;51.438;-0.098;2022-11-20T14:46:17;17.55;;;4.13;;
68275;SDS011;55106;51.438;-0.098;2022-11-20T14:48:43;12.37;;;3.03;;
68275;SDS011;55106;51.438;-0.098;2022-11-20T14:51:15;13.38;;;2.88;;
68275;SDS011;55106;51.438;-0.098;2022-11-20T14:53:52;13.48;;;2.58;;
68275;SDS011;55106;51.438;-0.098;2022-11-20T14:56:22;20.30;;;4.40;;
68275;SDS011;55106;51.438;-0.098;2022-11-20T14:58:55;17.98;;;4.43;;
68275;SDS011;55106;51.438;-0.098;2022-11-20T15:01:28;19.02;;;3.25;;
68275;SDS011;55106;51.438;-0.098;2022-11-20T15:06:48;16.70;;;3.37;;
68275;SDS011;55106;51.438;-0.098;2022-11-20T15:09:15;14.68;;;3.10;;
68275;SDS011;55106;51.438;-0.098;2022-11-20T15:11:49;13.73;;;3.57;;
68275;SDS011;55106;51.438;-0.098;2022-11-20T15:14:19;15.93;;;2.80;;
68275;SDS011;55106;51.438;-0.098;2022-11-20T15:16:45;18.02;;;3.30;;
68275;SDS011;55106;51.438;-0.098;2022-11-20T15:19:23;15.87;;;2.47;;
68275;SDS011;55106;51.438;-0.098;2022-11-20T15:21:50;14.70;;;3.22;;
68275;SDS011;55106;51.438;-0.098;2022-11-20T15:24:16;16.37;;;3.23;;
68275;SDS011;55106;51.438;-0.098;2022-11-20T15:26:41;20.05;;;2.72;;
68275;SDS011;55106;51.438;-0.098;2022-11-20T15:29:12;13.88;;;2.65;;
68275;SDS011;55106;51.438;-0.098;2022-11-20T15:31:39;18.60;;;2.88;;
68275;SDS011;55106;51.438;-0.098;2022-11-20T15:34:13;14.27;;;2.70;;
68275;SDS011;55106;51.438;-0.098;2022-11-20T15:36:40;14.27;;;2.80;;
68275;SDS011;55106;51.438;-0.098;2022-11-20T15:39:06;14.73;;;3.03;;
68275;SDS011;55106;51.438;-0.098;2022-11-20T15:41:34;15.52;;;3.58;;
68275;SDS011;55106;51.438;-0.098;2022-11-20T15:44:00;19.20;;;4.25;;
68275;SDS011;55106;51.438;-0.098;2022-11-20T15:46:26;12.53;;;3.17;;
68275;SDS011;55106;51.438;-0.098;2022-11-20T15:48:54;17.35;;;3.60;;
68275;SDS011;55106;51.438;-0.098;2022-11-20T15:51:25;12.65;;;3.00;;
68275;SDS011;55106;51.438;-0.098;2022-11-20T15:53:56;13.20;;;3.50;;
68275;SDS011;55106;51.438;-0.098;2022-11-20T15:56:22;15.32;;;3.60;;
68275;SDS011;55106;51.438;-0.098;2022-11-20T15:58:48;15.15;;;3.10;;
68275;SDS011;55106;51.438;-0.098;2022-11-20T16:01:14;10.70;;;2.80;;
68275;SDS011;55106;51.438;-0.098;2022-11-20T16:03:41;11.98;;;2.67;;
68275;SDS011;55106;51.438;-0.098;2022-11-20T16:06:07;12.33;;;3.10;;
68275;SDS011;55106;51.438;-0.098;2022-11-20T16:08:32;14.95;;;3.70;;
68275;SDS011;55106;51.438;-0.098;2022-11-20T16:10:58;12.80;;;2.80;;
68275;SDS011;55106;51.438;-0.098;2022-11-20T16:13:24;13.77;;;3.07;;
68275;SDS011;55106;51.438;-0.098;2022-11-20T16:16:11;16.67;;;3.40;;
68275;SDS011;55106;51.438;-0.098;2022-11-20T16:18:58;15.30;;;3.30;;
68275;SDS011;55106;51.438;-0.098;2022-11-20T16:21:24;18.52;;;3.20;;